createdAt,value
2018-02-27T00:00:41.890Z,44.42
2018-02-27T00:01:41.933Z,44.32
2018-02-27T00:02:41.920Z,44.51
2018-02-27T00:03:41.926Z,44.51
2018-02-27T00:04:41.949Z,44.42
2018-02-27T00:05:41.959Z,44.89
2018-02-27T00:06:41.966Z,44.99
2018-02-27T00:07:41.985Z,44.80
2018-02-27T00:08:42.087Z,45.08
2018-02-27T00:09:42.017Z,44.70
2018-02-27T00:10:42.036Z,45.08
2018-02-27T00:11:42.046Z,44.61
2018-02-27T00:12:42.060Z,44.89
2018-02-27T00:13:42.072Z,45.18
2018-02-27T00:14:42.108Z,44.61
2018-02-27T00:15:42.114Z,44.70
2018-02-27T00:16:42.132Z,44.61
2018-02-27T00:17:42.135Z,44.99
2018-02-27T00:18:42.159Z,44.80
2018-02-27T00:19:42.160Z,45.18
2018-02-27T00:20:42.179Z,44.99
2018-02-27T00:21:42.201Z,44.99
2018-02-27T00:22:42.227Z,44.99
2018-02-27T00:23:42.991Z,45.18
2018-02-27T00:24:42.241Z,45.27
2018-02-27T00:25:42.271Z,45.18
2018-02-27T00:26:42.265Z,44.99
2018-02-27T00:27:42.278Z,45.27
2018-02-27T00:28:42.288Z,45.36
2018-02-27T00:29:42.318Z,45.65
2018-02-27T00:30:42.326Z,45.46
2018-02-27T00:31:42.342Z,45.46
2018-02-27T00:32:42.355Z,45.55
2018-02-27T00:33:42.361Z,45.84
2018-02-27T00:34:42.398Z,45.93
2018-02-27T00:35:42.389Z,45.74
2018-02-27T00:36:42.406Z,45.93
2018-02-27T00:37:42.431Z,46.12
2018-02-27T00:38:42.437Z,46.40
2018-02-27T00:39:42.458Z,46.97
2018-02-27T00:40:42.471Z,46.88
2018-02-27T00:41:42.483Z,46.97
2018-02-27T00:42:42.498Z,46.78
2018-02-27T00:43:42.515Z,46.59
2018-02-27T00:44:42.526Z,46.59
2018-02-27T00:45:42.531Z,46.40
2018-02-27T00:46:42.541Z,46.40
2018-02-27T00:47:42.565Z,46.78
2018-02-27T00:48:42.586Z,47.06
2018-02-27T00:49:42.590Z,46.97
2018-02-27T00:50:42.629Z,46.78
2018-02-27T00:51:42.643Z,47.06
2018-02-27T00:52:42.633Z,47.06
2018-02-27T00:53:42.643Z,46.22
2018-02-27T00:54:42.658Z,46.31
2018-02-27T00:55:42.679Z,46.69
2018-02-27T00:56:42.709Z,46.78
2018-02-27T00:57:42.725Z,46.78
2018-02-27T00:58:42.734Z,46.50
2018-02-27T00:59:42.742Z,46.69
2018-02-27T01:00:42.749Z,46.88
2018-02-27T01:01:42.795Z,46.78
2018-02-27T01:02:42.787Z,47.06
2018-02-27T01:03:42.799Z,47.06
2018-02-27T01:04:42.810Z,46.88
2018-02-27T01:05:42.817Z,46.59
2018-02-27T01:06:42.848Z,46.69
2018-02-27T01:07:42.862Z,46.78
2018-02-27T01:08:42.862Z,46.59
2018-02-27T01:09:42.876Z,46.59
2018-02-27T01:10:42.887Z,47.16
2018-02-27T01:11:42.919Z,47.06
2018-02-27T01:12:42.925Z,46.88
2018-02-27T01:13:42.933Z,46.40
2018-02-27T01:14:42.951Z,46.78
2018-02-27T01:15:42.978Z,46.78
2018-02-27T01:16:42.983Z,46.88
2018-02-27T01:17:42.990Z,46.88
2018-02-27T01:18:43.008Z,46.97
2018-02-27T01:19:43.019Z,46.88
2018-02-27T01:20:43.051Z,46.22
2018-02-27T01:21:43.051Z,46.31
2018-02-27T01:22:43.067Z,46.22
2018-02-27T01:23:43.076Z,47.06
2018-02-27T01:24:43.086Z,46.78
2018-02-27T01:25:43.124Z,46.59
2018-02-27T01:26:43.134Z,46.69
2018-02-27T01:27:43.147Z,46.78
2018-02-27T01:28:43.147Z,46.50
2018-02-27T01:29:43.183Z,46.78
2018-02-27T01:30:43.195Z,46.40
2018-02-27T01:31:43.206Z,46.69
2018-02-27T01:32:43.211Z,46.40
2018-02-27T01:33:43.224Z,46.40
2018-02-27T01:34:43.247Z,46.50
2018-02-27T01:35:43.251Z,46.78
2018-02-27T01:36:43.268Z,46.59
2018-02-27T01:37:43.274Z,46.69
2018-02-27T01:38:43.291Z,46.97
2018-02-27T01:39:43.325Z,47.16
2018-02-27T01:40:43.338Z,47.16
2018-02-27T01:41:43.346Z,46.78
2018-02-27T01:42:43.350Z,46.69
2018-02-27T01:43:43.362Z,46.59
2018-02-27T01:44:43.372Z,46.69
2018-02-27T01:45:43.394Z,47.16
2018-02-27T01:46:43.417Z,46.50
2018-02-27T01:47:43.427Z,46.31
2018-02-27T01:48:43.452Z,46.40
2018-02-27T01:49:43.448Z,46.12
2018-02-27T01:50:43.461Z,46.59
2018-02-27T01:51:43.481Z,45.93
2018-02-27T01:52:43.486Z,46.12
2018-02-27T01:53:43.533Z,46.12
2018-02-27T01:54:43.535Z,45.65
2018-02-27T01:55:43.541Z,45.93
2018-02-27T01:56:43.546Z,45.55
2018-02-27T01:57:43.591Z,45.18
2018-02-27T01:58:43.576Z,45.55
2018-02-27T01:59:43.600Z,45.65
2018-02-27T02:00:43.611Z,45.55
2018-02-27T02:01:43.621Z,45.74
2018-02-27T02:02:43.664Z,45.65
2018-02-27T02:03:43.654Z,46.12
2018-02-27T02:04:43.672Z,46.03
2018-02-27T02:05:43.671Z,46.22
2018-02-27T02:06:43.693Z,46.40
2018-02-27T02:07:43.709Z,46.40
2018-02-27T02:08:43.740Z,46.40
2018-02-27T02:09:43.733Z,46.40
2018-02-27T02:10:43.765Z,46.40
2018-02-27T02:11:43.768Z,46.78
2018-02-27T02:12:43.766Z,46.88
2018-02-27T02:13:43.782Z,46.69
2018-02-27T02:14:43.809Z,46.50
2018-02-27T02:15:43.819Z,46.50
2018-02-27T02:16:43.825Z,46.78
2018-02-27T02:17:43.860Z,46.69
2018-02-27T02:18:43.866Z,46.97
2018-02-27T02:19:43.871Z,46.50
2018-02-27T02:20:43.880Z,46.50
2018-02-27T02:21:43.910Z,46.88
2018-02-27T02:22:43.912Z,46.69
2018-02-27T02:23:43.922Z,46.78
2018-02-27T02:24:43.951Z,46.97
2018-02-27T02:25:43.959Z,46.97
2018-02-27T02:26:43.973Z,46.78
2018-02-27T02:27:43.978Z,46.78
2018-02-27T02:28:44.009Z,46.40
2018-02-27T02:29:44.019Z,46.78
2018-02-27T02:30:44.027Z,46.40
2018-02-27T02:31:44.036Z,46.40
2018-02-27T02:32:44.055Z,46.69
2018-02-27T02:33:44.066Z,46.78
2018-02-27T02:34:44.083Z,46.69
2018-02-27T02:35:44.106Z,46.59
2018-02-27T02:36:44.104Z,46.78
2018-02-27T02:37:44.122Z,46.78
2018-02-27T02:38:44.156Z,46.69
2018-02-27T02:39:44.165Z,46.40
2018-02-27T02:40:44.165Z,46.78
2018-02-27T02:41:44.173Z,47.06
2018-02-27T02:42:44.200Z,46.97
2018-02-27T02:43:44.213Z,47.16
2018-02-27T02:44:44.228Z,46.88
2018-02-27T02:45:44.231Z,46.40
2018-02-27T02:46:44.256Z,46.59
2018-02-27T02:47:44.271Z,46.40
2018-02-27T02:48:44.276Z,46.78
2018-02-27T02:49:44.302Z,47.25
2018-02-27T02:50:44.305Z,47.81
2018-02-27T02:51:44.317Z,47.44
2018-02-27T02:52:44.328Z,47.34
2018-02-27T02:53:44.342Z,47.81
2018-02-27T02:54:44.380Z,47.63
2018-02-27T02:55:44.389Z,47.53
2018-02-27T02:56:44.393Z,47.34
2018-02-27T02:57:44.415Z,47.06
2018-02-27T02:58:44.414Z,46.97
2018-02-27T02:59:44.449Z,46.88
2018-02-27T03:00:44.451Z,47.06
2018-02-27T03:01:44.490Z,46.97
2018-02-27T03:02:44.476Z,47.06
2018-02-27T03:03:44.502Z,46.88
2018-02-27T03:04:44.499Z,46.97
2018-02-27T03:05:44.520Z,47.25
2018-02-27T03:06:44.525Z,47.53
2018-02-27T03:07:44.538Z,47.34
2018-02-27T03:08:44.584Z,47.91
2018-02-27T03:09:44.587Z,47.44
2018-02-27T03:10:44.588Z,47.63
2018-02-27T03:11:44.660Z,47.53
2018-02-27T03:12:44.610Z,47.53
2018-02-27T03:13:44.620Z,47.53
2018-02-27T03:14:44.651Z,47.44
2018-02-27T03:15:44.670Z,47.44
2018-02-27T03:16:44.685Z,47.72
2018-02-27T03:17:45.510Z,48.00
2018-02-27T03:18:44.699Z,47.44
2018-02-27T03:19:44.719Z,47.53
2018-02-27T03:20:44.720Z,47.63
2018-02-27T03:21:44.741Z,47.16
2018-02-27T03:22:44.752Z,46.69
2018-02-27T03:23:44.791Z,46.97
2018-02-27T03:24:44.786Z,46.97
2018-02-27T03:25:44.825Z,47.16
2018-02-27T03:26:44.811Z,47.72
2018-02-27T03:27:44.823Z,47.06
2018-02-27T03:28:44.864Z,47.16
2018-02-27T03:29:44.856Z,46.97
2018-02-27T03:30:44.893Z,47.44
2018-02-27T03:31:44.876Z,47.44
2018-02-27T03:32:44.893Z,47.34
2018-02-27T03:33:44.900Z,47.25
2018-02-27T03:34:44.924Z,47.72
2018-02-27T03:35:44.934Z,47.72
2018-02-27T03:36:44.956Z,47.72
2018-02-27T03:37:44.963Z,47.16
2018-02-27T03:38:45.006Z,47.63
2018-02-27T03:39:44.996Z,47.44
2018-02-27T03:40:45.001Z,47.25
2018-02-27T03:41:45.016Z,47.06
2018-02-27T03:42:45.027Z,47.06
2018-02-27T03:43:45.224Z,46.97
2018-02-27T03:44:45.063Z,46.97
2018-02-27T03:45:45.071Z,47.16
2018-02-27T03:46:45.105Z,47.06
2018-02-27T03:47:45.169Z,46.97
2018-02-27T03:48:45.115Z,47.16
2018-02-27T03:49:45.126Z,47.25
2018-02-27T03:50:45.146Z,47.53
2018-02-27T03:51:45.160Z,47.53
2018-02-27T03:52:45.195Z,47.53
2018-02-27T03:53:45.200Z,47.91
2018-02-27T03:54:45.209Z,46.88
2018-02-27T03:55:45.214Z,46.50
2018-02-27T03:56:45.233Z,46.78
2018-02-27T03:57:45.297Z,46.78
2018-02-27T03:58:45.269Z,46.97
2018-02-27T03:59:45.268Z,46.97
2018-02-27T04:00:45.300Z,47.06
2018-02-27T04:01:45.324Z,46.97
2018-02-27T04:02:45.316Z,47.34
2018-02-27T04:03:45.335Z,48.00
2018-02-27T04:04:45.351Z,47.91
2018-02-27T04:05:45.352Z,47.72
2018-02-27T04:06:45.371Z,47.91
2018-02-27T04:07:45.402Z,47.34
2018-02-27T04:08:45.406Z,47.81
2018-02-27T04:10:45.421Z,48.10
2018-02-27T04:11:45.445Z,47.81
2018-02-27T04:12:45.456Z,48.00
2018-02-27T04:13:45.473Z,48.29
2018-02-27T04:14:45.489Z,47.81
2018-02-27T04:15:45.493Z,48.00
2018-02-27T04:16:45.521Z,48.00
2018-02-27T04:17:45.522Z,47.53
2018-02-27T04:18:45.537Z,47.63
2018-02-27T04:19:45.551Z,47.91
2018-02-27T04:20:45.567Z,48.00
2018-02-27T04:21:45.582Z,48.00
2018-02-27T04:22:45.608Z,47.91
2018-02-27T04:23:45.630Z,48.00
2018-02-27T04:24:45.625Z,48.00
2018-02-27T04:25:45.648Z,48.38
2018-02-27T04:26:45.643Z,48.85
2018-02-27T04:27:45.668Z,49.04
2018-02-27T04:28:45.685Z,48.76
2018-02-27T04:29:45.692Z,47.81
2018-02-27T04:30:45.707Z,47.91
2018-02-27T04:31:45.729Z,47.91
2018-02-27T04:32:45.736Z,47.81
2018-02-27T04:33:45.741Z,47.81
2018-02-27T04:34:45.764Z,48.29
2018-02-27T04:35:45.774Z,48.00
2018-02-27T04:36:45.786Z,47.91
2018-02-27T04:37:45.814Z,47.89
2018-02-27T04:38:45.828Z,47.72
2018-02-27T04:39:45.832Z,47.81
2018-02-27T04:40:45.847Z,47.53
2018-02-27T04:41:45.856Z,48.19
2018-02-27T04:42:45.873Z,48.00
2018-02-27T04:43:45.890Z,47.91
2018-02-27T04:44:45.905Z,48.00
2018-02-27T04:45:45.914Z,48.00
2018-02-27T04:46:45.923Z,48.47
2018-02-27T04:47:45.998Z,48.10
2018-02-27T04:48:45.976Z,48.47
2018-02-27T04:49:45.972Z,48.76
2018-02-27T04:50:45.980Z,48.83
2018-02-27T04:51:46.026Z,50.34
2018-02-27T04:52:46.030Z,51.94
2018-02-27T04:53:46.043Z,52.60
2018-02-27T04:54:46.049Z,53.73
2018-02-27T04:55:46.063Z,53.73
2018-02-27T04:56:46.104Z,54.30
2018-02-27T04:57:46.083Z,53.73
2018-02-27T04:58:46.104Z,54.21
2018-02-27T04:59:46.110Z,54.30
2018-02-27T05:00:46.131Z,54.58
2018-02-27T05:01:46.165Z,54.39
2018-02-27T05:02:46.168Z,54.30
2018-02-27T05:03:46.166Z,54.68
2018-02-27T05:04:46.182Z,54.11
2018-02-27T05:05:46.193Z,53.73
2018-02-27T05:06:46.228Z,53.54
2018-02-27T05:07:46.263Z,53.64
2018-02-27T05:08:46.242Z,52.79
2018-02-27T05:09:46.253Z,52.03
2018-02-27T05:10:46.261Z,52.32
2018-02-27T05:11:46.283Z,52.60
2018-02-27T05:12:46.303Z,52.60
2018-02-27T05:13:46.313Z,53.17
2018-02-27T05:14:46.316Z,53.73
2018-02-27T05:15:46.327Z,53.73
2018-02-27T05:16:46.362Z,54.02
2018-02-27T05:17:46.357Z,54.30
2018-02-27T05:18:46.372Z,54.21
2018-02-27T05:19:46.388Z,53.54
2018-02-27T05:20:46.406Z,53.64
2018-02-27T05:21:46.437Z,53.64
2018-02-27T05:22:46.447Z,53.64
2018-02-27T05:23:46.450Z,53.54
2018-02-27T05:24:46.457Z,53.26
2018-02-27T05:25:46.461Z,53.07
2018-02-27T05:26:46.505Z,52.60
2018-02-27T05:27:46.494Z,52.79
2018-02-27T05:28:46.512Z,52.79
2018-02-27T05:29:46.522Z,52.69
2018-02-27T05:30:46.536Z,52.32
2018-02-27T05:31:46.562Z,52.79
2018-02-27T05:32:46.565Z,52.88
2018-02-27T05:33:46.578Z,52.41
2018-02-27T05:34:46.590Z,52.60
2018-02-27T05:35:46.598Z,52.41
2018-02-27T05:36:46.616Z,51.84
2018-02-27T05:37:46.631Z,52.41
2018-02-27T05:38:46.649Z,52.22
2018-02-27T05:39:46.653Z,52.13
2018-02-27T05:40:46.680Z,52.32
2018-02-27T05:41:46.746Z,51.47
2018-02-27T05:42:46.695Z,50.81
2018-02-27T05:43:46.717Z,50.90
2018-02-27T05:44:46.725Z,50.62
2018-02-27T05:45:46.747Z,50.90
2018-02-27T05:46:46.750Z,51.09
2018-02-27T05:47:46.784Z,51.56
2018-02-27T05:48:46.794Z,51.37
2018-02-27T05:49:46.810Z,51.66
2018-02-27T05:50:46.808Z,51.66
2018-02-27T05:51:46.822Z,51.94
2018-02-27T05:52:46.872Z,51.75
2018-02-27T05:53:46.878Z,52.03
2018-02-27T05:54:46.893Z,51.84
2018-02-27T05:55:46.895Z,52.32
2018-02-27T05:56:46.896Z,52.32
2018-02-27T05:57:46.915Z,52.22
2018-02-27T05:58:46.913Z,52.22
2018-02-27T05:59:46.941Z,52.32
2018-02-27T06:00:46.949Z,52.60
2018-02-27T06:01:46.959Z,52.60
2018-02-27T06:02:46.983Z,52.51
2018-02-27T06:03:46.998Z,52.13
2018-02-27T06:04:47.025Z,52.03
2018-02-27T06:05:47.009Z,51.84
2018-02-27T06:06:47.029Z,51.75
2018-02-27T06:07:47.074Z,52.03
2018-02-27T06:08:47.084Z,52.13
2018-02-27T06:09:47.086Z,52.13
2018-02-27T06:10:47.087Z,52.69
2018-02-27T06:11:47.114Z,52.60
2018-02-27T06:12:47.114Z,52.41
2018-02-27T06:13:47.123Z,52.98
2018-02-27T06:14:47.140Z,53.07
2018-02-27T06:15:47.195Z,52.60
2018-02-27T06:16:48.025Z,52.51
2018-02-27T06:17:47.208Z,52.79
2018-02-27T06:18:47.195Z,52.79
2018-02-27T06:19:47.203Z,52.51
2018-02-27T06:20:47.228Z,52.03
2018-02-27T06:21:47.237Z,52.03
2018-02-27T06:22:47.290Z,51.94
2018-02-27T06:23:47.285Z,51.94
2018-02-27T06:24:47.281Z,52.03
2018-02-27T06:25:47.291Z,52.03
2018-02-27T06:26:47.312Z,51.94
2018-02-27T06:27:47.327Z,52.22
2018-02-27T06:28:47.334Z,51.94
2018-02-27T06:29:47.344Z,52.13
2018-02-27T06:30:47.359Z,52.06
2018-02-27T06:31:47.373Z,52.34
2018-02-27T06:32:47.386Z,52.15
2018-02-27T06:33:47.406Z,52.15
2018-02-27T06:34:47.420Z,52.13
2018-02-27T06:35:47.429Z,51.84
2018-02-27T06:36:47.449Z,51.37
2018-02-27T06:37:47.458Z,51.56
2018-02-27T06:38:47.477Z,51.66
2018-02-27T06:39:47.489Z,51.84
2018-02-27T06:40:47.526Z,51.84
2018-02-27T06:41:47.509Z,52.03
2018-02-27T06:42:47.540Z,52.32
2018-02-27T06:43:47.564Z,51.75
2018-02-27T06:44:47.590Z,52.22
2018-02-27T06:45:47.570Z,52.03
2018-02-27T06:46:47.583Z,51.66
2018-02-27T06:47:47.653Z,51.84
2018-02-27T06:48:47.622Z,51.84
2018-02-27T06:49:47.622Z,52.13
2018-02-27T06:50:47.671Z,51.94
2018-02-27T06:51:47.669Z,51.37
2018-02-27T06:52:47.666Z,51.47
2018-02-27T06:53:47.675Z,51.56
2018-02-27T06:54:47.687Z,50.99
2018-02-27T06:55:47.713Z,51.18
2018-02-27T06:56:47.723Z,51.09
2018-02-27T06:57:47.740Z,50.90
2018-02-27T06:58:47.768Z,50.43
2018-02-27T06:59:47.754Z,50.90
2018-02-27T07:00:47.782Z,50.62
2018-02-27T07:01:47.790Z,50.99
2018-02-27T07:02:48.424Z,50.52
2018-02-27T07:03:47.814Z,50.62
2018-02-27T07:04:47.925Z,50.43
2018-02-27T07:05:47.839Z,49.58
2018-02-27T07:06:47.862Z,49.87
2018-02-27T07:07:47.878Z,49.87
2018-02-27T07:08:47.881Z,50.05
2018-02-27T07:09:47.891Z,50.15
2018-02-27T07:10:47.916Z,49.77
2018-02-27T07:11:47.925Z,49.87
2018-02-27T07:12:47.950Z,49.87
2018-02-27T07:13:47.951Z,49.87
2018-02-27T07:14:47.958Z,49.96
2018-02-27T07:15:47.980Z,49.87
2018-02-27T07:16:47.999Z,49.58
2018-02-27T07:17:48.024Z,49.87
2018-02-27T07:18:48.013Z,49.87
2018-02-27T07:19:48.107Z,49.87
2018-02-27T07:20:48.048Z,50.15
2018-02-27T07:21:48.056Z,50.05
2018-02-27T07:22:48.074Z,49.49
2018-02-27T07:23:48.089Z,49.58
2018-02-27T07:24:48.150Z,49.30
2018-02-27T07:25:48.137Z,49.02
2018-02-27T07:26:48.144Z,49.02
2018-02-27T07:27:48.182Z,49.40
2018-02-27T07:28:48.179Z,49.21
2018-02-27T07:29:48.167Z,49.40
2018-02-27T07:30:48.236Z,49.02
2018-02-27T07:31:48.222Z,49.49
2018-02-27T07:32:48.219Z,49.30
2018-02-27T07:33:48.218Z,49.02
2018-02-27T07:34:48.247Z,49.21
2018-02-27T07:35:48.253Z,49.11
2018-02-27T07:36:48.265Z,48.83
2018-02-27T07:37:48.284Z,48.93
2018-02-27T07:38:48.293Z,49.11
2018-02-27T07:39:48.304Z,49.21
2018-02-27T07:40:48.313Z,49.21
2018-02-27T07:41:48.340Z,49.11
2018-02-27T07:42:48.373Z,49.11
2018-02-27T07:43:48.359Z,49.11
2018-02-27T07:44:48.370Z,49.21
2018-02-27T07:45:48.395Z,49.11
2018-02-27T07:46:48.404Z,49.02
2018-02-27T07:47:48.411Z,49.30
2018-02-27T07:48:48.421Z,48.93
2018-02-27T07:49:48.440Z,49.30
2018-02-27T07:50:48.456Z,49.11
2018-02-27T07:51:48.469Z,49.87
2018-02-27T07:52:48.486Z,49.49
2018-02-27T07:53:48.494Z,49.96
2018-02-27T07:54:48.518Z,49.77
2018-02-27T07:55:48.520Z,49.49
2018-02-27T07:56:48.537Z,49.21
2018-02-27T07:57:48.546Z,49.40
2018-02-27T07:58:48.560Z,49.02
2018-02-27T07:59:48.576Z,49.21
2018-02-27T08:00:48.597Z,48.93
2018-02-27T08:01:48.614Z,49.02
2018-02-27T08:02:48.624Z,49.02
2018-02-27T08:03:48.629Z,49.21
2018-02-27T08:04:48.639Z,49.02
2018-02-27T08:05:48.667Z,48.93
2018-02-27T08:06:48.676Z,48.74
2018-02-27T08:07:48.688Z,48.93
2018-02-27T08:08:48.696Z,48.64
2018-02-27T08:09:48.793Z,49.04
2018-02-27T08:10:48.725Z,48.76
2018-02-27T08:11:48.735Z,49.04
2018-02-27T08:12:48.769Z,48.76
2018-02-27T08:13:48.818Z,48.57
2018-02-27T08:14:48.780Z,49.04
2018-02-27T08:15:48.806Z,48.85
2018-02-27T08:16:48.832Z,48.00
2018-02-27T08:17:48.827Z,48.00
2018-02-27T08:18:48.849Z,47.51
2018-02-27T08:19:48.844Z,47.81
2018-02-27T08:20:48.862Z,47.63
2018-02-27T08:21:48.887Z,47.91
2018-02-27T08:22:48.901Z,47.72
2018-02-27T08:23:48.903Z,47.72
2018-02-27T08:24:48.920Z,47.63
2018-02-27T08:25:49.009Z,47.53
2018-02-27T08:26:48.951Z,46.88
2018-02-27T08:27:48.965Z,47.06
2018-02-27T08:28:48.978Z,46.12
2018-02-27T08:29:48.986Z,46.88
2018-02-27T08:30:49.031Z,47.06
2018-02-27T08:31:49.035Z,46.59
2018-02-27T08:32:49.033Z,46.50
2018-02-27T08:33:49.079Z,46.12
2018-02-27T08:34:49.073Z,46.22
2018-02-27T08:35:49.072Z,46.12
2018-02-27T08:36:49.097Z,46.31
2018-02-27T08:37:49.105Z,45.93
2018-02-27T08:38:49.116Z,45.74
2018-02-27T08:39:49.140Z,45.65
2018-02-27T08:40:49.145Z,45.27
2018-02-27T08:41:49.160Z,44.99
2018-02-27T08:42:49.209Z,45.36
2018-02-27T08:43:49.198Z,45.65
2018-02-27T08:44:49.203Z,45.74
2018-02-27T08:45:49.228Z,45.93
2018-02-27T08:46:49.238Z,46.50
2018-02-27T08:47:49.263Z,46.04
2018-02-27T08:48:49.265Z,45.46
2018-02-27T08:49:49.275Z,44.99
2018-02-27T08:50:49.301Z,45.36
2018-02-27T08:51:49.326Z,45.27
2018-02-27T08:52:49.319Z,45.18
2018-02-27T08:53:49.354Z,44.61
2018-02-27T08:54:49.360Z,45.01
2018-02-27T08:55:49.364Z,45.01
2018-02-27T08:56:49.405Z,44.45
2018-02-27T08:57:49.414Z,43.97
2018-02-27T08:58:49.413Z,44.54
2018-02-27T08:59:49.432Z,44.64
2018-02-27T09:00:49.452Z,44.26
2018-02-27T09:01:49.484Z,44.64
2018-02-27T09:02:49.531Z,44.51
2018-02-27T09:03:49.513Z,44.23
2018-02-27T09:04:49.497Z,44.14
2018-02-27T09:05:49.511Z,44.14
2018-02-27T09:06:49.536Z,44.64
2018-02-27T09:07:49.542Z,44.26
2018-02-27T09:08:49.558Z,44.32
2018-02-27T09:09:49.579Z,44.07
2018-02-27T09:10:49.593Z,44.42
2018-02-27T09:11:49.605Z,44.42
2018-02-27T09:12:49.621Z,44.51
2018-02-27T09:13:49.636Z,44.51
2018-02-27T09:14:49.711Z,44.42
2018-02-27T09:15:49.663Z,44.42
2018-02-27T09:16:49.691Z,44.70
2018-02-27T09:17:50.408Z,44.61
2018-02-27T09:18:49.709Z,44.42
2018-02-27T09:19:49.742Z,44.73
2018-02-27T09:20:49.741Z,44.07
2018-02-27T09:21:49.759Z,44.26
2018-02-27T09:22:49.781Z,44.26
2018-02-27T09:23:49.788Z,43.78
2018-02-27T09:24:49.801Z,43.41
2018-02-27T09:25:49.810Z,43.31
2018-02-27T09:26:49.838Z,42.93
2018-02-27T09:27:49.839Z,43.19
2018-02-27T09:28:49.853Z,43.78
2018-02-27T09:29:49.878Z,44.16
2018-02-27T09:30:49.990Z,44.64
2018-02-27T09:31:49.905Z,44.26
2018-02-27T09:32:49.979Z,43.69
2018-02-27T09:33:49.940Z,42.93
2018-02-27T09:34:49.964Z,42.93
2018-02-27T09:35:49.967Z,43.12
2018-02-27T09:36:49.986Z,43.01
2018-02-27T09:37:49.991Z,43.19
2018-02-27T09:38:50.126Z,43.38
2018-02-27T09:39:50.026Z,43.57
2018-02-27T09:40:50.036Z,43.69
2018-02-27T09:41:50.073Z,43.57
2018-02-27T09:42:50.078Z,44.23
2018-02-27T09:43:50.087Z,44.54
2018-02-27T09:44:50.111Z,44.16
2018-02-27T09:45:50.123Z,43.97
2018-02-27T09:46:50.136Z,44.26
2018-02-27T09:47:50.160Z,43.22
2018-02-27T09:48:50.166Z,43.03
2018-02-27T09:49:50.179Z,43.03
2018-02-27T09:50:50.182Z,43.22
2018-02-27T09:51:50.225Z,43.31
2018-02-27T09:52:50.222Z,43.41
2018-02-27T09:53:50.255Z,43.50
2018-02-27T09:54:50.274Z,43.24
2018-02-27T09:55:50.264Z,43.05
2018-02-27T09:56:50.281Z,42.58
2018-02-27T09:57:50.297Z,41.35
2018-02-27T09:58:50.303Z,40.59
2018-02-27T09:59:50.331Z,40.14
2018-02-27T10:00:50.365Z,39.76
2018-02-27T10:01:50.370Z,39.20
2018-02-27T10:02:50.371Z,38.65
2018-02-27T10:03:50.387Z,37.97
2018-02-27T10:04:50.409Z,37.21
2018-02-27T10:05:50.416Z,37.88
2018-02-27T10:06:50.435Z,37.90
2018-02-27T10:07:50.466Z,36.23
2018-02-27T10:08:50.476Z,34.07
2018-02-27T10:09:50.482Z,32.01
2018-02-27T10:10:50.505Z,30.21
2018-02-27T10:11:50.532Z,28.81
2018-02-27T10:12:50.544Z,27.88
2018-02-27T10:13:50.551Z,25.90
2018-02-27T10:14:50.585Z,24.30
2018-02-27T10:15:50.598Z,23.19
2018-02-27T10:16:50.609Z,21.95
2018-02-27T10:17:50.638Z,21.09
2018-02-27T10:18:50.752Z,19.63
2018-02-27T10:19:50.677Z,20.98
2018-02-27T10:20:50.707Z,20.98
2018-02-27T10:21:50.717Z,21.25
2018-02-27T10:22:50.758Z,20.80
2018-02-27T10:23:50.764Z,21.55
2018-02-27T10:24:50.789Z,21.62
2018-02-27T10:25:50.807Z,23.02
2018-02-27T10:26:50.839Z,24.90
2018-02-27T10:27:50.856Z,26.31
2018-02-27T10:28:50.885Z,27.25
2018-02-27T10:29:50.902Z,28.14
2018-02-27T10:30:50.933Z,27.22
2018-02-27T10:31:50.965Z,24.28
2018-02-27T10:32:50.986Z,23.29
2018-02-27T10:33:51.024Z,24.05
2018-02-27T10:34:51.030Z,24.90
2018-02-27T10:35:51.057Z,25.21
2018-02-27T10:36:51.087Z,25.04
2018-02-27T10:37:51.133Z,23.35
2018-02-27T10:38:51.132Z,22.05
2018-02-27T10:39:51.155Z,20.26
2018-02-27T10:40:51.184Z,19.13
2018-02-27T10:41:51.223Z,17.70
2018-02-27T10:42:51.243Z,16.85
2018-02-27T10:43:51.283Z,15.72
2018-02-27T10:44:51.287Z,15.13
2018-02-27T10:45:51.378Z,15.59
2018-02-27T10:46:51.345Z,16.69
2018-02-27T10:47:51.371Z,19.06
2018-02-27T10:48:51.407Z,20.40
2018-02-27T10:49:51.425Z,19.56
2018-02-27T10:50:51.458Z,20.01
2018-02-27T10:51:51.497Z,20.18
2018-02-27T10:52:51.508Z,22.24
2018-02-27T10:53:51.710Z,24.50
2018-02-27T10:54:51.594Z,26.21
2018-02-27T10:55:51.589Z,26.53
2018-02-27T10:56:51.627Z,25.66
2018-02-27T10:57:51.656Z,25.01
2018-02-27T10:58:51.675Z,25.28
2018-02-27T10:59:51.765Z,25.39
2018-02-27T11:00:51.728Z,24.82
2018-02-27T11:01:51.771Z,24.19
2018-02-27T11:02:51.796Z,22.89
2018-02-27T11:03:51.829Z,21.01
2018-02-27T11:04:51.837Z,19.68
2018-02-27T11:05:51.871Z,18.73
2018-02-27T11:06:51.896Z,17.97
2018-02-27T11:07:51.920Z,18.16
2018-02-27T11:08:52.915Z,17.93
2018-02-27T11:09:51.975Z,19.24
2018-02-27T11:10:52.011Z,21.03
2018-02-27T11:11:52.035Z,22.65
2018-02-27T11:12:52.063Z,22.85
2018-02-27T11:13:52.092Z,23.05
2018-02-27T11:14:52.119Z,22.22
2018-02-27T11:15:52.144Z,21.00
2018-02-27T11:16:52.187Z,19.30
2018-02-27T11:17:52.225Z,18.74
2018-02-27T11:18:52.231Z,17.41
2018-02-27T11:19:52.315Z,16.75
2018-02-27T11:20:52.298Z,16.47
2018-02-27T11:21:52.324Z,15.58
2018-02-27T11:22:52.363Z,17.55
2018-02-27T11:23:52.383Z,19.26
2018-02-27T11:24:52.396Z,20.89
2018-02-27T11:25:52.446Z,21.15
2018-02-27T11:26:52.465Z,21.88
2018-02-27T11:27:52.505Z,23.22
2018-02-27T11:28:52.516Z,23.13
2018-02-27T11:29:52.549Z,23.24
2018-02-27T11:30:52.594Z,22.20
2018-02-27T11:31:52.597Z,22.19
2018-02-27T11:32:52.642Z,22.37
2018-02-27T11:33:52.659Z,23.48
2018-02-27T11:34:52.694Z,24.82
2018-02-27T11:35:52.707Z,25.04
2018-02-27T11:36:52.746Z,23.82
2018-02-27T11:37:52.782Z,22.03
2018-02-27T11:38:52.799Z,21.08
2018-02-27T11:39:52.828Z,20.79
2018-02-27T11:40:52.861Z,21.05
2018-02-27T11:41:52.877Z,22.00
2018-02-27T11:42:52.984Z,22.19
2018-02-27T11:43:52.936Z,22.57
2018-02-27T11:44:52.963Z,23.32
2018-02-27T11:45:52.977Z,24.44
2018-02-27T11:46:53.009Z,24.55
2018-02-27T11:47:53.030Z,24.37
2018-02-27T11:48:53.067Z,23.33
2018-02-27T11:49:53.080Z,23.24
2018-02-27T11:50:53.110Z,23.33
2018-02-27T11:51:53.139Z,22.85
2018-02-27T11:52:53.158Z,22.76
2018-02-27T11:53:53.199Z,22.76
2018-02-27T11:54:53.282Z,23.16
2018-02-27T11:55:53.248Z,22.21
2018-02-27T11:56:53.273Z,21.18
2018-02-27T11:57:53.295Z,21.19
2018-02-27T11:58:53.320Z,20.24
2018-02-27T11:59:53.349Z,19.76
2018-02-27T12:00:53.365Z,19.76
2018-02-27T12:01:53.408Z,19.85
2018-02-27T12:02:53.419Z,20.40
2018-02-27T12:03:53.451Z,21.08
2018-02-27T12:04:53.480Z,21.08
2018-02-27T12:05:53.568Z,21.08
2018-02-27T12:06:53.551Z,20.61
2018-02-27T12:07:53.555Z,19.86
2018-02-27T12:08:53.594Z,19.59
2018-02-27T12:09:53.601Z,19.02
2018-02-27T12:10:53.636Z,18.37
2018-02-27T12:11:53.696Z,17.43
2018-02-27T12:12:53.685Z,16.96
2018-02-27T12:13:53.706Z,16.00
2018-02-27T12:14:53.740Z,16.63
2018-02-27T12:15:53.775Z,18.13
2018-02-27T12:16:53.804Z,19.54
2018-02-27T12:17:53.828Z,21.23
2018-02-27T12:18:53.846Z,22.85
2018-02-27T12:19:53.874Z,23.53
2018-02-27T12:20:53.914Z,22.32
2018-02-27T12:21:53.927Z,20.99
2018-02-27T12:22:53.961Z,20.24
2018-02-27T12:23:54.061Z,20.05
2018-02-27T12:24:54.006Z,19.48
2018-02-27T12:25:54.056Z,19.48
2018-02-27T12:26:54.055Z,19.30
2018-02-27T12:27:54.099Z,19.20
2018-02-27T12:28:54.120Z,18.55
2018-02-27T12:29:54.142Z,17.99
2018-02-27T12:30:54.183Z,17.79
2018-02-27T12:31:54.192Z,17.40
2018-02-27T12:32:54.231Z,18.62
2018-02-27T12:33:54.244Z,19.28
2018-02-27T12:34:54.279Z,19.56
2018-02-27T12:35:54.291Z,21.06
2018-02-27T12:36:54.323Z,21.98
2018-02-27T12:37:54.343Z,24.33
2018-02-27T12:38:54.387Z,26.59
2018-02-27T12:39:54.393Z,27.73
2018-02-27T12:40:54.411Z,29.14
2018-02-27T12:41:54.442Z,30.08
2018-02-27T12:42:54.467Z,30.73
2018-02-27T12:43:54.492Z,31.10
2018-02-27T12:44:54.542Z,31.86
2018-02-27T12:45:54.536Z,32.34
2018-02-27T12:46:54.553Z,32.71
2018-02-27T12:47:54.579Z,32.73
2018-02-27T12:48:54.596Z,32.26
2018-02-27T12:49:54.622Z,31.79
2018-02-27T12:50:54.638Z,31.88
2018-02-27T12:51:54.663Z,31.33
2018-02-27T12:52:54.689Z,31.14
2018-02-27T12:53:54.708Z,30.76